Latest Weather Observations for Arlington Reef

IDQ60801

Issued at 5:02 pm EST Sunday 25 September 2016 (issued every 30 minutes, with the page automatically refreshed every 10 minutes)

About weather observations | Map of weather stations | Latest weather observations for QLD | Other Formats
Station Details ID: 200879 Name: ARLINGTON REEF Lat: -16.72 Lon: 146.11 Height: 0.0 m
Data from the previous 72 hours. | See also: Recent months at Arlington Reef
Date/Time
EST
Temp
°C
App
Temp
°C
Dew
Point
°C
Rel
Hum
%
Delta-T
°C
Wind Press
QNH
hPa
Press
MSL
hPa
Rain since
9am
mm
Dir  Spd
km/h
Gust
km/h
Spd
kts
Gust
kts
25/05:00pm - - - - - N 15 19 8 10 1009.0 1009.0 -
25/04:30pm - - - - - N 15 17 8 9 1008.9 1008.9 -
25/04:00pm - - - - - N 15 19 8 10 1009.0 1009.0 -
25/03:30pm - - - - - N 15 17 8 9 1008.9 1008.9 -
25/03:00pm - - - - - NNE 15 19 8 10 1009.1 1009.1 -
25/02:30pm - - - - - N 17 19 9 10 1009.2 1009.2 -
25/02:00pm - - - - - N 13 17 7 9 1009.7 1009.7 -
25/01:30pm - - - - - N 13 17 7 9 1010.0 1010.0 -
25/01:00pm - - - - - N 11 15 6 8 1010.4 1010.4 -
25/12:30pm - - - - - N 13 15 7 8 1011.0 1011.0 -
25/12:00pm - - - - - N 13 15 7 8 1011.4 1011.4 -
25/11:30am - - - - - NNE 13 17 7 9 1011.8 1011.8 -
25/11:00am - - - - - NNE 13 15 7 8 1012.2 1012.2 -
25/10:30am - - - - - NNE 13 15 7 8 1012.5 1012.5 -
25/10:00am - - - - - NNE 11 15 6 8 1012.5 1012.5 -
25/09:30am - - - - - NNE 13 15 7 8 1012.6 1012.6 -
25/09:00am - - - - - NNE 11 13 6 7 1012.6 1012.6 -
25/08:30am - - - - - NNE 9 11 5 6 1012.5 1012.5 -
25/08:00am - - - - - N 9 11 5 6 1012.3 1012.3 -
25/07:30am - - - - - N 9 13 5 7 1012.0 1012.0 -
25/07:00am - - - - - N 11 13 6 7 1011.5 1011.5 -
25/06:30am - - - - - NNW 13 15 7 8 1010.9 1010.9 -
25/06:00am - - - - - NNW 13 15 7 8 1010.5 1010.5 -
25/05:30am - - - - - N 13 15 7 8 1010.0 1010.0 -
25/05:00am - - - - - N 13 15 7 8 1009.6 1009.6 -
25/04:30am - - - - - N 13 15 7 8 1009.3 1009.3 -
25/04:00am - - - - - N 11 13 6 7 1008.9 1008.9 -
25/03:30am - - - - - N 11 13 6 7 1008.9 1008.9 -
25/03:00am - - - - - N 9 11 5 6 1009.0 1009.0 -
25/02:30am - - - - - N 9 11 5 6 1009.3 1009.3 -
25/02:00am - - - - - N 9 11 5 6 1009.4 1009.4 -
25/01:30am - - - - - N 9 11 5 6 1009.7 1009.7 -
25/01:00am - - - - - N 9 11 5 6 1009.9 1009.9 -
25/12:30am - - - - - N 7 9 4 5 1010.5 1010.5 -
25/12:00am - - - - - N 9 11 5 6 1010.8 1010.8 -
 
Date/Time
EST
Temp
°C
App
Temp
°C
Dew
Point
°C
Rel
Hum
%
Delta-T
°C
Wind Press
QNH
hPa
Press
MSL
hPa
Rain since
9am
mm
Dir  Spd
km/h
Gust
km/h
Spd
kts
Gust
kts
24/11:30pm - - - - - NNE 11 15 6 8 1011.0 1011.0 -
24/11:00pm - - - - - NNE 9 13 5 7 1011.2 1011.2 -
24/10:30pm - - - - - NNE 13 15 7 8 1011.3 1011.3 -
24/10:00pm - - - - - NNE 13 15 7 8 1011.4 1011.4 -
24/09:30pm - - - - - NE 13 17 7 9 1011.4 1011.4 -
24/09:00pm - - - - - NNE 13 15 7 8 1011.3 1011.3 -
24/08:30pm - - - - - NNE 13 15 7 8 1011.1 1011.1 -
24/08:00pm - - - - - NNE 15 17 8 9 1010.8 1010.8 -
24/07:30pm - - - - - NNE 11 15 6 8 1010.4 1010.4 -
24/07:00pm - - - - - NNE 13 15 7 8 1010.0 1010.0 -
24/06:30pm - - - - - NE 11 15 6 8 1009.7 1009.7 -
24/06:00pm - - - - - NE 13 17 7 9 1009.4 1009.4 -
24/05:30pm - - - - - NNE 13 15 7 8 1009.2 1009.2 -
24/05:00pm - - - - - NNE 11 15 6 8 1009.1 1009.1 -
24/04:30pm - - - - - NNE 15 17 8 9 1008.8 1008.8 -
24/04:00pm - - - - - NNE 17 20 9 11 1008.7 1008.7 -
24/03:30pm - - - - - NE 15 17 8 9 1008.9 1008.9 -
24/03:00pm - - - - - NNE 13 17 7 9 1009.2 1009.2 -
24/02:30pm - - - - - NE 13 17 7 9 1009.6 1009.6 -
24/02:00pm - - - - - NE 7 9 4 5 1010.1 1010.1 -
24/01:30pm - - - - - NE 7 11 4 6 1010.6 1010.6 -
24/01:00pm - - - - - ENE 7 11 4 6 1011.1 1011.1 -
24/12:30pm - - - - - NE 7 9 4 5 1011.5 1011.5 -
24/12:00pm - - - - - ENE 2 4 1 2 1012.0 1012.0 -
24/11:30am - - - - - E 2 7 1 4 1012.4 1012.4 -
24/11:00am - - - - - CALM 0 0 0 0 1012.8 1012.8 -
24/10:30am - - - - - CALM 0 0 0 0 1013.0 1013.0 -
24/10:00am - - - - - CALM 0 0 0 0 1013.2 1013.2 -
24/09:30am - - - - - CALM 0 0 0 0 1013.3 1013.3 -
24/09:00am - - - - - CALM 0 2 0 1 1013.4 1013.4 -
24/08:30am - - - - - NE 2 4 1 2 1013.0 1013.0 -
24/08:00am - - - - - CALM 0 2 0 1 1012.6 1012.6 -
24/07:30am - - - - - CALM 0 0 0 0 1012.2 1012.2 -
24/07:00am - - - - - N 2 6 1 3 1011.8 1011.8 -
24/06:30am - - - - - NNE 4 6 2 3 1011.2 1011.2 -
24/06:00am - - - - - NNE 6 7 3 4 1010.9 1010.9 -
24/05:30am - - - - - NNE 4 6 2 3 1010.6 1010.6 -
24/05:00am - - - - - NNE 6 7 3 4 1010.3 1010.3 -
24/04:30am - - - - - NE 6 9 3 5 1010.1 1010.1 -
24/04:00am - - - - - NE 7 9 4 5 1010.1 1010.1 -
24/03:30am - - - - - NE 9 11 5 6 1010.1 1010.1 -
24/03:00am - - - - - NE 7 13 4 7 1010.3 1010.3 -
24/02:30am - - - - - NE 9 11 5 6 1010.3 1010.3 -
24/02:00am - - - - - NE 7 9 4 5 1010.5 1010.5 -
24/01:30am - - - - - NNE 4 6 2 3 1010.7 1010.7 -
24/01:00am - - - - - NNE 4 6 2 3 1010.9 1010.9 -
24/12:30am - - - - - NE 6 9 3 5 1011.1 1011.1 -
24/12:00am - - - - - NE 7 11 4 6 1011.3 1011.3 -
 
Date/Time
EST
Temp
°C
App
Temp
°C
Dew
Point
°C
Rel
Hum
%
Delta-T
°C
Wind Press
QNH
hPa
Press
MSL
hPa
Rain since
9am
mm
Dir  Spd
km/h
Gust
km/h
Spd
kts
Gust
kts
23/11:30pm - - - - - NE 7 11 4 6 1011.6 1011.6 -
23/11:00pm - - - - - NE 9 13 5 7 1011.8 1011.8 -
23/10:30pm - - - - - ENE 9 13 5 7 1011.9 1011.9 -
23/10:00pm - - - - - NE 9 11 5 6 1011.9 1011.9 -
23/09:30pm - - - - - NE 13 15 7 8 1011.9 1011.9 -
23/09:00pm - - - - - NE 13 17 7 9 1011.6 1011.6 -
23/08:30pm - - - - - NE 15 17 8 9 1011.6 1011.6 -
23/08:00pm - - - - - ENE 15 19 8 10 1011.3 1011.3 -
23/07:30pm - - - - - ENE 15 19 8 10 1011.0 1011.0 -
23/07:00pm - - - - - NE 15 19 8 10 1010.6 1010.6 -
23/06:30pm - - - - - ENE 17 20 9 11 1010.3 1010.3 -
23/06:00pm - - - - - ENE 19 20 10 11 1010.0 1010.0 -
23/05:30pm - - - - - NE 17 20 9 11 1009.9 1009.9 -
23/05:00pm - - - - - ENE 17 20 9 11 1009.8 1009.8 -
23/04:30pm - - - - - ENE 17 20 9 11 1009.6 1009.6 -
23/04:00pm - - - - - NE 17 20 9 11 1009.4 1009.4 -
23/03:30pm - - - - - ENE 15 19 8 10 1009.6 1009.6 -
23/03:00pm - - - - - ENE 13 15 7 8 1009.8 1009.8 -
23/02:30pm - - - - - E 11 15 6 8 1010.2 1010.2 -
23/02:00pm - - - - - E 11 15 6 8 1010.6 1010.6 -
23/01:30pm - - - - - ESE 7 11 4 6 1011.0 1011.0 -
23/01:00pm - - - - - ESE 7 9 4 5 1011.4 1011.4 -
23/12:30pm - - - - - SE 6 9 3 5 1011.8 1011.8 -
23/12:00pm - - - - - SE 6 7 3 4 1012.3 1012.3 -
23/11:30am - - - - - ESE 6 7 3 4 1012.6 1012.6 -
23/11:00am - - - - - SE 6 7 3 4 1012.8 1012.8 -
23/10:30am - - - - - SE 6 7 3 4 1013.1 1013.1 -
23/10:00am - - - - - ESE 6 7 3 4 1013.2 1013.2 -
23/09:30am - - - - - ESE 6 7 3 4 1013.1 1013.1 -
23/09:00am - - - - - SE 7 9 4 5 1013.2 1013.2 -
23/08:30am - - - - - ESE 9 11 5 6 1013.3 1013.3 -
23/08:00am - - - - - ESE 7 9 4 5 1013.1 1013.1 -
23/07:30am - - - - - SE 6 6 3 3 1012.9 1012.9 -
23/07:00am - - - - - SE 7 9 4 5 1012.3 1012.3 -
23/06:30am - - - - - ESE 4 6 2 3 1012.0 1012.0 -
23/06:00am - - - - - ESE 6 6 3 3 1011.9 1011.9 -
23/05:30am - - - - - ESE 2 4 1 2 1011.7 1011.7 -
23/05:00am - - - - - ESE 4 6 2 3 1011.4 1011.4 -
23/04:30am - - - - - CALM 0 0 0 0 1011.2 1011.2 -
23/04:00am - - - - - ESE 2 4 1 2 1011.2 1011.2 -
23/03:30am - - - - - CALM 0 0 0 0 1011.2 1011.2 -
23/03:00am - - - - - ENE 4 6 2 3 1011.3 1011.3 -
23/02:30am - - - - - NNE 6 7 3 4 1011.3 1011.3 -
23/02:00am - - - - - NE 6 7 3 4 1011.5 1011.5 -
23/01:30am - - - - - NE 6 7 3 4 1011.8 1011.8 -
23/01:00am - - - - - NE 7 9 4 5 1012.0 1012.0 -
23/12:30am - - - - - NE 7 9 4 5 1012.4 1012.4 -
23/12:00am - - - - - NE 7 9 4 5 1012.6 1012.6 -
 
Date/Time
EST
Temp
°C
App
Temp
°C
Dew
Point
°C
Rel
Hum
%
Delta-T
°C
Wind Press
QNH
hPa
Press
MSL
hPa
Rain since
9am
mm
Dir  Spd
km/h
Gust
km/h
Spd
kts
Gust
kts
22/11:30pm - - - - - ENE 7 9 4 5 1012.8 1012.8 -
22/11:00pm - - - - - CALM 0 0 0 0 1013.1 1013.1 -
22/10:30pm - - - - - E 2 6 1 3 1013.1 1013.1 -
22/10:00pm - - - - - E 2 4 1 2 1013.1 1013.1 -
22/09:30pm - - - - - SE 6 7 3 4 1013.0 1013.0 -
22/09:00pm - - - - - SE 4 6 2 3 1013.0 1013.0 -
22/08:30pm - - - - - SSE 9 11 5 6 1013.0 1013.0 -
22/08:00pm - - - - - SE 9 11 5 6 1012.9 1012.9 -
22/07:30pm - - - - - ESE 11 13 6 7 1012.6 1012.6 -
22/07:00pm - - - - - ESE 11 13 6 7 1012.6 1012.6 -
22/06:30pm - - - - - SE 13 15 7 8 1012.2 1012.2 -
22/06:00pm - - - - - ESE 9 17 5 9 1012.1 1012.1 -
22/05:30pm - - - - - ENE 7 9 4 5 1011.9 1011.9 -

Other Formats:

Comma delimited format used in spreadsheet applications
http://www.bom.gov.au/fwo/IDQ60801/IDQ60801.94284.axf

JavaScript Object Notation format (JSON) in row-major order
http://www.bom.gov.au/fwo/IDQ60801/IDQ60801.94284.json